Terminal Aerodrome Forecast
Issued by NWS

Current Version | Previous Version | Text Only | Print | Product List | Glossary On
Versions: 1 2 3 4 5 6 7 8 9 10 11 12
000
FTUS42 TJSJ 251700 RRA
TAFJPS
TAF
TJPS 251741Z 2518/2618 13010KT P6SM FEW030
     FM252330 05005KT P6SM FEW030
     FM261500 13011KT P6SM FEW030 SCT060
      AMD NOT SKED TIL 260300=

USA.gov is the U.S. government's official web portal to all federal, state and local government web resources and services.